Time;durP1;ratioP1;P1;durP2;ratioP2;P2;SDS_P1;SDS_P2;PMS_P1;PMS_P2;Temp;Humidity;BMP_temperature;BMP_pressure;BME280_temperature;BME280_humidity;BME280_pressure;Samples;Min_cycle;Max_cycle;Signal;HPM_P1;HPM_P2
2022/05/10 00:02:15;;;;;;;9.37;6.70;;;16.50;99.90;;;;;;5050594;28;20846;-76
2022/05/10 00:04:45;;;;;;;7.60;6.80;;;16.40;99.90;;;;;;5054885;28;21286;-76
2022/05/10 00:07:13;;;;;;;8.50;6.53;;;16.40;99.90;;;;;;5049124;28;20545;-75
2022/05/10 00:09:39;;;;;;;11.60;8.40;;;16.30;99.90;;;;;;5055860;28;20456;-75
2022/05/10 00:12:12;;;;;;;11.77;7.30;;;16.30;99.90;;;;;;5053956;28;21016;-75
2022/05/10 00:14:39;;;;;;;8.17;6.93;;;16.20;99.90;;;;;;5051486;28;20466;-76
2022/05/10 00:17:18;;;;;;;10.73;6.63;;;16.20;99.90;;;;;;5050513;28;20613;-76
2022/05/10 00:20:12;;;;;;;12.13;6.43;;;16.10;99.90;;;;;;5047910;28;21143;-76
2022/05/10 00:22:42;;;;;;;7.83;7.00;;;16.10;99.90;;;;;;5050362;28;21017;-76
2022/05/10 00:25:16;;;;;;;9.83;6.00;;;16.00;99.90;;;;;;5048413;28;20450;-76
2022/05/10 00:27:45;;;;;;;7.97;6.27;;;15.90;99.90;;;;;;5049417;28;20487;-76
2022/05/10 00:30:16;;;;;;;7.87;6.37;;;15.90;99.90;;;;;;5042794;28;20497;-76
2022/05/10 00:32:46;;;;;;;7.60;5.83;;;15.80;99.90;;;;;;5053185;28;20463;-76
2022/05/10 00:35:19;;;;;;;7.70;6.00;;;15.80;99.90;;;;;;5046357;28;20458;-76
2022/05/10 00:37:49;;;;;;;7.43;5.63;;;15.80;99.90;;;;;;5051495;28;20503;-76
2022/05/10 00:40:33;;;;;;;9.97;5.70;;;15.70;99.90;;;;;;5045112;28;20513;-77
2022/05/10 00:43:14;;;;;;;10.23;7.67;;;15.80;99.90;;;;;;5051289;28;20502;-75
2022/05/10 00:45:46;;;;;;;8.13;6.57;;;16.00;99.90;;;;;;5052107;28;20474;-75
2022/05/10 00:48:31;;;;;;;11.07;7.23;;;16.00;99.90;;;;;;5052190;28;21175;-76
2022/05/10 00:51:08;;;;;;;7.60;5.00;;;16.00;99.90;;;;;;5056979;28;20450;-77
2022/05/10 00:53:47;;;;;;;9.90;7.63;;;16.00;99.90;;;;;;5052661;28;20490;-75
2022/05/10 00:56:22;;;;;;;8.70;6.80;;;15.90;99.90;;;;;;5056232;28;20479;-76
2022/05/10 00:58:56;;;;;;;9.73;7.10;;;15.80;99.90;;;;;;5049505;28;20482;-76
2022/05/10 01:01:29;;;;;;;6.13;5.53;;;15.70;99.90;;;;;;5032907;28;20468;-77
2022/05/10 01:04:08;;;;;;;10.60;8.50;;;15.60;99.90;;;;;;5041145;28;20923;-76
2022/05/10 01:06:52;;;;;;;8.60;7.70;;;15.50;99.90;;;;;;5036072;28;20662;-76
2022/05/10 01:09:28;;;;;;;7.00;5.83;;;15.60;99.90;;;;;;5047883;28;20938;-76
2022/05/10 01:12:08;;;;;;;10.60;7.27;;;15.70;99.90;;;;;;5055086;28;20450;-76
2022/05/10 01:14:47;;;;;;;9.40;6.30;;;15.80;99.90;;;;;;5049510;28;21021;-76
2022/05/10 01:17:16;;;;;;;8.50;6.87;;;15.80;99.90;;;;;;5049898;28;20624;-77
2022/05/10 01:19:45;;;;;;;7.97;7.17;;;15.80;99.90;;;;;;5044798;28;21373;-76
2022/05/10 01:22:29;;;;;;;7.40;6.10;;;15.70;99.90;;;;;;5043334;28;20466;-77
2022/05/10 01:25:13;;;;;;;9.70;7.67;;;15.70;99.90;;;;;;5050574;28;20840;-76
2022/05/10 01:28:08;;;;;;;8.80;6.87;;;15.70;99.90;;;;;;5045743;28;21013;-76
2022/05/10 01:30:47;;;;;;;10.67;6.67;;;15.80;99.90;;;;;;5050841;28;20457;-76
2022/05/10 01:33:29;;;;;;;9.30;6.53;;;15.80;99.90;;;;;;5052282;28;20467;-76
2022/05/10 01:36:03;;;;;;;8.20;6.23;;;15.70;99.90;;;;;;5039421;28;20479;-76
2022/05/10 01:38:43;;;;;;;9.20;6.50;;;15.60;99.90;;;;;;5053875;28;20445;-76
2022/05/10 01:41:17;;;;;;;12.00;7.23;;;15.50;99.90;;;;;;5037405;28;20706;-76
2022/05/10 01:43:51;;;;;;;11.33;8.03;;;15.50;99.90;;;;;;5048957;28;20464;-76
2022/05/10 01:46:22;;;;;;;9.00;6.60;;;15.40;99.90;;;;;;5050950;28;20478;-76
2022/05/10 01:49:01;;;;;;;10.83;8.10;;;15.30;99.90;;;;;;5043222;28;20450;-75
2022/05/10 01:51:32;;;;;;;8.77;7.10;;;15.40;99.90;;;;;;5040991;28;20462;-77
2022/05/10 01:53:59;;;;;;;10.10;6.20;;;15.30;99.90;;;;;;5043479;28;22225;-76
2022/05/10 01:56:29;;;;;;;8.37;6.17;;;15.40;99.90;;;;;;5047255;28;20476;-77
2022/05/10 01:59:04;;;;;;;9.23;6.87;;;15.40;99.90;;;;;;5046371;28;20537;-76
2022/05/10 02:01:35;;;;;;;16.33;7.97;;;15.40;99.90;;;;;;5035313;28;20985;-75
2022/05/10 02:04:12;;;;;;;9.80;6.13;;;15.50;99.90;;;;;;5053537;28;20930;-77
2022/05/10 02:06:45;;;;;;;10.60;7.00;;;15.40;99.90;;;;;;5039027;28;21005;-76
2022/05/10 02:09:17;;;;;;;8.07;7.23;;;15.30;99.90;;;;;;5032844;28;21195;-76
2022/05/10 02:11:52;;;;;;;7.60;6.20;;;15.40;99.90;;;;;;5035658;28;20495;-77
2022/05/10 02:14:25;;;;;;;8.30;6.20;;;15.50;99.90;;;;;;5045187;28;20976;-77
2022/05/10 02:16:56;;;;;;;7.60;6.87;;;15.60;99.90;;;;;;5048347;28;20492;-77
2022/05/10 02:19:26;;;;;;;7.93;7.17;;;15.70;99.90;;;;;;5043980;28;20495;-77
2022/05/10 02:21:56;;;;;;;10.37;7.80;;;15.80;99.90;;;;;;5050461;28;20462;-77
2022/05/10 02:24:27;;;;;;;8.93;6.63;;;15.60;99.90;;;;;;5046413;28;20471;-77
2022/05/10 02:27:05;;;;;;;8.40;6.73;;;15.60;99.90;;;;;;5051012;28;20486;-77
2022/05/10 02:29:38;;;;;;;10.73;6.60;;;15.50;99.90;;;;;;5048379;28;20888;-77
2022/05/10 02:35:01;;;;;;;6.90;5.33;;;15.30;99.90;;;;;;5041902;28;21146;-77
2022/05/10 02:37:32;;;;;;;8.97;6.10;;;15.30;99.90;;;;;;5050303;28;20565;-76
2022/05/10 02:39:59;;;;;;;8.50;7.37;;;15.20;99.90;;;;;;5048302;28;20979;-77
2022/05/10 02:42:31;;;;;;;9.60;6.30;;;15.20;99.90;;;;;;5044721;28;20454;-76
2022/05/10 02:44:59;;;;;;;8.13;7.23;;;15.30;99.90;;;;;;5044574;28;20462;-75
2022/05/10 02:47:35;;;;;;;7.17;6.20;;;15.30;99.90;;;;;;5044744;28;20475;-76
2022/05/10 02:50:03;;;;;;;7.57;6.77;;;15.40;99.90;;;;;;5046581;28;20477;-77
2022/05/10 02:52:30;;;;;;;12.93;8.63;;;15.50;99.90;;;;;;5050737;28;20927;-77
2022/05/10 02:55:06;;;;;;;10.00;6.60;;;15.20;99.90;;;;;;5042576;28;20470;-77
2022/05/10 02:57:33;;;;;;;8.40;5.47;;;15.30;99.90;;;;;;5035743;28;20483;-76
2022/05/10 03:00:04;;;;;;;7.73;6.23;;;15.20;99.90;;;;;;5034431;28;20882;-76
2022/05/10 03:02:40;;;;;;;14.30;6.47;;;15.10;99.90;;;;;;5045501;28;20893;-76
2022/05/10 03:05:08;;;;;;;8.13;6.50;;;15.00;99.90;;;;;;5043265;28;20476;-76
2022/05/10 03:07:42;;;;;;;12.53;7.93;;;15.00;99.90;;;;;;5032936;28;21072;-76
2022/05/10 03:10:10;;;;;;;11.77;5.70;;;15.00;99.90;;;;;;5034668;28;20461;-76
2022/05/10 03:12:37;;;;;;;7.00;6.20;;;15.00;99.90;;;;;;5052229;28;20462;-76
2022/05/10 03:15:13;;;;;;;8.77;7.50;;;15.00;99.90;;;;;;5044960;28;20514;-77
2022/05/10 03:17:41;;;;;;;9.93;6.67;;;15.00;99.90;;;;;;5041612;28;21052;-75
2022/05/10 03:20:08;;;;;;;10.97;8.33;;;14.90;99.90;;;;;;5038497;28;20489;-75
2022/05/10 03:22:35;;;;;;;10.00;6.40;;;14.80;99.90;;;;;;5037799;28;20470;-75
2022/05/10 03:25:02;;;;;;;11.30;6.60;;;14.80;99.90;;;;;;5038000;28;20474;-75
2022/05/10 03:27:37;;;;;;;13.53;7.07;;;14.80;99.90;;;;;;5038796;28;20475;-76
2022/05/10 03:30:08;;;;;;;13.63;6.60;;;14.70;99.90;;;;;;5039214;28;20454;-76
2022/05/10 03:32:41;;;;;;;14.00;7.00;;;14.80;99.90;;;;;;5049407;28;20507;-77
2022/05/10 03:35:09;;;;;;;9.50;6.63;;;14.80;99.90;;;;;;5042925;28;20494;-76
2022/05/10 03:37:41;;;;;;;24.57;7.83;;;14.80;99.90;;;;;;5046348;28;20544;-76
2022/05/10 03:40:16;;;;;;;14.00;6.70;;;14.90;99.90;;;;;;5037209;28;20494;-75
2022/05/10 03:42:47;;;;;;;15.43;6.60;;;15.00;99.90;;;;;;5062552;28;20458;-76
2022/05/10 03:45:18;;;;;;;13.77;7.03;;;15.00;99.90;;;;;;5045187;28;21121;-76
2022/05/10 03:47:52;;;;;;;17.97;7.33;;;15.10;99.90;;;;;;5048825;28;20470;-76
2022/05/10 03:50:36;;;;;;;16.30;7.23;;;15.10;99.90;;;;;;5038848;28;20429;-76
2022/05/10 03:53:10;;;;;;;15.30;7.30;;;15.20;99.90;;;;;;5045374;28;21599;-75
2022/05/10 03:55:38;;;;;;;10.23;6.87;;;15.20;99.90;;;;;;5050778;28;20454;-77
2022/05/10 03:58:06;;;;;;;9.30;7.33;;;15.10;99.90;;;;;;5045318;28;20458;-76
2022/05/10 04:00:38;;;;;;;12.03;6.60;;;15.00;99.90;;;;;;5034574;28;20467;-76
2022/05/10 04:03:10;;;;;;;12.73;7.40;;;14.90;99.90;;;;;;5046974;28;20460;-76
2022/05/10 04:05:37;;;;;;;10.00;7.53;;;14.90;99.90;;;;;;5041540;28;20588;-76
2022/05/10 04:08:05;;;;;;;13.73;7.47;;;15.00;99.90;;;;;;5053052;28;21612;-76
2022/05/10 04:10:34;;;;;;;11.20;7.43;;;15.00;99.90;;;;;;5046209;28;20505;-76
2022/05/10 04:13:08;;;;;;;7.33;6.63;;;15.00;99.90;;;;;;5041787;28;20873;-77
2022/05/10 04:15:36;;;;;;;9.33;6.93;;;15.00;99.90;;;;;;5047370;28;20463;-76
2022/05/10 04:18:03;;;;;;;10.97;7.37;;;15.00;99.90;;;;;;5049291;28;20480;-76
2022/05/10 04:20:30;;;;;;;13.40;7.43;;;15.10;99.90;;;;;;5040414;28;20512;-75
2022/05/10 04:22:59;;;;;;;15.90;6.40;;;15.00;99.90;;;;;;5043451;28;21145;-76
2022/05/10 04:25:32;;;;;;;6.53;5.60;;;14.90;99.90;;;;;;5056396;28;20455;-77
2022/05/10 04:28:05;;;;;;;14.30;7.67;;;14.90;99.90;;;;;;5054232;28;20454;-77
2022/05/10 04:30:34;;;;;;;20.33;7.20;;;14.90;99.90;;;;;;5049705;28;21038;-77
2022/05/10 04:33:12;;;;;;;9.77;7.00;;;15.00;99.90;;;;;;5043469;28;20473;-77
2022/05/10 04:35:43;;;;;;;8.47;6.83;;;15.10;99.90;;;;;;5056979;28;20471;-77
2022/05/10 04:38:10;;;;;;;13.03;6.87;;;15.20;99.90;;;;;;5059480;28;20450;-77
2022/05/10 04:43:31;;;;;;;10.30;7.43;;;15.30;99.90;;;;;;5007025;28;20585;-76
2022/05/10 04:45:59;;;;;;;10.73;6.77;;;15.30;99.90;;;;;;5047542;28;20519;-76
2022/05/10 04:48:29;;;;;;;11.50;9.20;;;15.40;99.90;;;;;;5046812;28;20459;-76
2022/05/10 04:50:57;;;;;;;8.17;6.80;;;15.40;99.90;;;;;;5054331;28;20490;-76
2022/05/10 04:53:31;;;;;;;14.80;6.90;;;15.40;99.90;;;;;;5052574;28;20975;-76
2022/05/10 04:55:58;;;;;;;11.43;7.80;;;15.40;99.90;;;;;;5060372;28;20486;-76
2022/05/10 04:58:25;;;;;;;8.03;6.23;;;15.50;99.90;;;;;;5055410;28;20503;-76
2022/05/10 05:00:52;;;;;;;15.10;8.90;;;15.60;99.90;;;;;;5057786;28;20516;-76
2022/05/10 05:03:21;;;;;;;11.83;7.30;;;15.60;99.90;;;;;;5056425;28;20463;-76
2022/05/10 05:05:58;;;;;;;11.40;8.20;;;15.60;99.90;;;;;;5058747;28;21048;-76
2022/05/10 05:08:26;;;;;;;14.27;8.23;;;15.60;99.90;;;;;;5056987;28;20520;-76
2022/05/10 05:10:57;;;;;;;8.90;7.33;;;15.70;99.90;;;;;;5057936;28;21032;-76
2022/05/10 05:13:29;;;;;;;10.13;7.33;;;15.60;99.90;;;;;;5057298;28;20469;-76
2022/05/10 05:16:00;;;;;;;15.60;8.33;;;15.60;99.90;;;;;;5060023;28;20485;-76
2022/05/10 05:18:31;;;;;;;11.50;7.40;;;15.60;99.90;;;;;;5056302;28;20550;-76
2022/05/10 05:21:12;;;;;;;21.63;8.80;;;15.70;99.90;;;;;;5056471;28;20474;-77
2022/05/10 05:23:40;;;;;;;18.70;10.50;;;15.80;99.90;;;;;;5060223;28;21086;-77
2022/05/10 05:26:08;;;;;;;20.60;8.83;;;16.10;99.90;;;;;;5058172;28;20484;-76
2022/05/10 05:28:35;;;;;;;20.33;8.20;;;16.20;99.90;;;;;;5059112;28;20903;-76
2022/05/10 05:31:03;;;;;;;9.67;6.97;;;16.30;99.90;;;;;;5056264;28;20463;-76
2022/05/10 05:33:44;;;;;;;10.73;7.53;;;16.40;99.90;;;;;;5051683;28;20462;-76
2022/05/10 05:36:18;;;;;;;15.37;8.27;;;16.40;99.90;;;;;;5056841;28;20498;-76
2022/05/10 05:38:45;;;;;;;19.47;7.93;;;16.30;99.90;;;;;;5062937;22;20519;-79
2022/05/10 05:41:12;;;;;;;10.53;6.73;;;16.30;99.90;;;;;;5045511;28;20449;-76
2022/05/10 05:43:38;;;;;;;17.70;7.70;;;16.40;99.90;;;;;;5037085;28;20563;-79
2022/05/10 05:46:05;;;;;;;9.50;7.20;;;16.50;99.90;;;;;;5036707;28;20549;-78
2022/05/10 05:48:32;;;;;;;12.43;7.93;;;16.60;99.90;;;;;;5036836;28;20557;-77
2022/05/10 05:50:58;;;;;;;16.57;7.87;;;16.80;99.90;;;;;;5043004;28;21022;-77
2022/05/10 05:53:27;;;;;;;14.67;7.40;;;17.10;99.90;;;;;;5041202;28;20460;-77
2022/05/10 05:55:54;;;;;;;21.33;7.03;;;17.20;99.90;;;;;;5029573;28;21045;-77
2022/05/10 05:58:21;;;;;;;8.47;6.60;;;17.30;99.90;;;;;;5037441;28;20535;-77
2022/05/10 06:00:47;;;;;;;19.23;7.40;;;17.50;99.90;;;;;;5035947;28;20488;-79
2022/05/10 06:03:14;;;;;;;8.33;6.83;;;17.50;99.90;;;;;;5040762;28;20471;-78
2022/05/10 06:05:41;;;;;;;13.93;6.83;;;17.50;99.90;;;;;;5040919;28;20456;-78
2022/05/10 06:08:09;;;;;;;8.73;7.13;;;17.40;99.90;;;;;;5039953;28;21104;-78
2022/05/10 06:10:40;;;;;;;8.13;6.83;;;17.60;99.90;;;;;;5034416;28;20474;-78
2022/05/10 06:13:07;;;;;;;7.77;6.97;;;18.30;99.90;;;;;;5036411;28;20487;-78
2022/05/10 06:15:33;;;;;;;8.00;7.03;;;19.10;99.90;;;;;;5035281;28;20526;-78
2022/05/10 06:18:03;;;;;;;13.73;6.77;;;19.80;99.90;;;;;;5042642;28;20534;-78
2022/05/10 06:20:31;;;;;;;15.67;6.67;;;20.50;99.90;;;;;;5045065;28;20481;-79
2022/05/10 06:22:57;;;;;;;10.20;7.80;;;20.70;99.90;;;;;;5039700;28;20463;-78
2022/05/10 06:25:25;;;;;;;6.73;5.87;;;21.20;99.90;;;;;;5039788;28;20475;-79
2022/05/10 06:27:55;;;;;;;8.70;5.60;;;21.80;99.90;;;;;;5039386;28;20460;-78
2022/05/10 06:30:23;;;;;;;11.67;6.13;;;22.40;99.90;;;;;;5037282;28;20971;-78
2022/05/10 06:32:51;;;;;;;6.90;5.70;;;22.60;99.90;;;;;;5044778;28;20487;-78
2022/05/10 06:35:19;;;;;;;7.50;5.70;;;22.70;99.90;;;;;;5042487;28;20468;-77
2022/05/10 06:40:30;;;;;;;11.90;6.03;;;22.60;99.90;;;;;;5037111;28;20480;-78
2022/05/10 06:43:00;;;;;;;7.97;5.17;;;22.30;99.90;;;;;;5033690;28;20479;-77
2022/05/10 06:45:26;;;;;;;6.67;4.70;;;22.20;99.90;;;;;;5034426;28;20465;-77
2022/05/10 06:47:53;;;;;;;8.03;4.90;;;22.10;99.90;;;;;;5032426;28;20510;-76
2022/05/10 06:50:23;;;;;;;6.87;5.33;;;22.00;99.90;;;;;;5032582;28;20478;-75
2022/05/10 06:52:51;;;;;;;5.90;4.67;;;22.20;99.90;;;;;;5037616;28;20452;-76
2022/05/10 06:55:18;;;;;;;6.27;4.80;;;22.30;99.90;;;;;;5036808;28;20461;-76
2022/05/10 06:57:45;;;;;;;5.17;4.67;;;22.60;99.90;;;;;;5026330;28;20508;-76
2022/05/10 07:00:16;;;;;;;5.87;4.63;;;22.60;99.90;;;;;;5037234;28;20559;-76
2022/05/10 07:02:43;;;;;;;6.07;4.57;;;22.90;99.90;;;;;;5036495;28;21150;-76
2022/05/10 07:05:11;;;;;;;14.87;5.90;;;23.00;99.90;;;;;;5035043;28;20495;-76
2022/05/10 07:07:38;;;;;;;7.10;4.27;;;22.90;99.90;;;;;;5040790;28;20514;-76
2022/05/10 07:10:08;;;;;;;4.70;4.23;;;23.00;99.90;;;;;;5040688;28;20538;-76
2022/05/10 07:12:36;;;;;;;5.60;4.27;;;23.30;99.90;;;;;;5040416;28;21001;-76
2022/05/10 07:15:02;;;;;;;4.87;4.33;;;23.10;99.90;;;;;;5039396;28;20465;-75
2022/05/10 07:17:30;;;;;;;6.97;4.60;;;23.40;99.90;;;;;;5041771;28;20883;-76
2022/05/10 07:19:57;;;;;;;5.90;4.90;;;23.60;99.90;;;;;;5039929;28;20888;-76
2022/05/10 07:22:25;;;;;;;7.03;5.37;;;24.00;99.90;;;;;;5038087;28;20984;-76
2022/05/10 07:24:51;;;;;;;5.13;4.20;;;24.40;99.90;;;;;;5038033;28;20836;-76
2022/05/10 07:27:18;;;;;;;5.40;4.50;;;24.60;99.90;;;;;;5042414;28;21045;-75
2022/05/10 07:29:45;;;;;;;4.13;3.73;;;24.50;99.90;;;;;;5042254;28;21013;-75
2022/05/10 07:32:14;;;;;;;4.20;3.80;;;24.70;99.90;;;;;;5038561;28;20953;-76
2022/05/10 07:34:42;;;;;;;6.23;4.40;;;24.50;99.90;;;;;;5033576;28;20464;-76
2022/05/10 07:37:09;;;;;;;10.77;4.07;;;24.70;99.90;;;;;;5037124;28;20469;-75
2022/05/10 07:39:36;;;;;;;10.23;5.27;;;25.00;99.90;;;;;;5041075;28;20487;-76
2022/05/10 07:42:04;;;;;;;5.60;5.00;;;25.30;99.90;;;;;;5036274;28;21516;-76
2022/05/10 07:44:31;;;;;;;6.23;4.47;;;25.80;99.90;;;;;;5044933;28;20480;-76
2022/05/10 07:46:58;;;;;;;6.17;5.03;;;26.10;99.90;;;;;;5039957;28;20457;-76
2022/05/10 07:49:24;;;;;;;6.10;4.33;;;26.40;99.90;;;;;;5038286;28;21844;-76
2022/05/10 07:51:53;;;;;;;4.90;4.40;;;26.70;99.90;;;;;;5040185;28;20967;-76
2022/05/10 07:54:20;;;;;;;5.63;4.63;;;27.10;99.90;;;;;;5039906;28;20464;-76
2022/05/10 07:56:46;;;;;;;4.63;4.00;;;27.00;99.90;;;;;;5022279;28;20465;-75
2022/05/10 07:59:13;;;;;;;6.00;4.37;;;27.20;99.90;;;;;;5036586;28;21094;-75
2022/05/10 08:01:43;;;;;;;7.50;3.97;;;27.40;99.90;;;;;;5040019;28;20846;-76
2022/05/10 08:04:10;;;;;;;3.77;3.40;;;27.60;99.90;;;;;;5035719;28;21046;-75
2022/05/10 08:06:36;;;;;;;4.70;4.10;;;28.10;99.20;;;;;;5034548;28;20528;-76
2022/05/10 08:09:05;;;;;;;5.30;3.83;;;28.30;98.00;;;;;;5034151;28;20485;-76
2022/05/10 08:11:32;;;;;;;4.40;4.00;;;28.20;98.80;;;;;;5037986;28;20540;-75
2022/05/10 08:13:58;;;;;;;7.80;4.70;;;28.60;97.90;;;;;;5040234;28;20556;-76
2022/05/10 08:16:26;;;;;;;4.17;3.50;;;28.90;97.80;;;;;;5021971;28;20838;-76
2022/05/10 08:18:53;;;;;;;3.80;2.97;;;29.40;96.90;;;;;;5034456;28;20482;-76
2022/05/10 08:21:20;;;;;;;5.27;4.27;;;29.90;95.80;;;;;;5042770;28;20486;-76
2022/05/10 08:23:49;;;;;;;3.60;3.30;;;29.90;92.80;;;;;;5039268;28;20476;-76
2022/05/10 08:26:17;;;;;;;4.37;3.97;;;30.30;93.10;;;;;;5036169;28;20820;-76
2022/05/10 08:28:43;;;;;;;5.40;3.97;;;31.00;91.20;;;;;;5039606;28;20497;-76
2022/05/10 08:31:10;;;;;;;4.60;3.70;;;31.60;89.90;;;;;;5036816;28;20455;-76
2022/05/10 08:33:39;;;;;;;3.97;3.10;;;31.50;88.20;;;;;;5034118;28;20470;-76
2022/05/10 08:36:08;;;;;;;4.00;3.60;;;30.70;86.80;;;;;;5040904;28;20492;-76
2022/05/10 08:38:35;;;;;;;5.03;4.53;;;30.10;88.20;;;;;;5038381;28;20510;-76
2022/05/10 08:41:06;;;;;;;4.50;2.80;;;29.70;88.40;;;;;;5030860;28;20539;-76
2022/05/10 08:43:39;;;;;;;3.97;3.60;;;30.30;85.80;;;;;;5037860;28;20462;-76
2022/05/10 08:46:08;;;;;;;5.33;3.93;;;30.50;83.40;;;;;;5038076;28;20529;-76
2022/05/10 08:48:35;;;;;;;4.83;3.40;;;30.20;83.20;;;;;;5040183;28;20486;-76
2022/05/10 08:51:03;;;;;;;5.00;3.03;;;30.10;85.60;;;;;;5042063;28;20456;-76
2022/05/10 08:53:32;;;;;;;5.70;3.30;;;30.60;84.40;;;;;;5034449;28;20974;-76
2022/05/10 08:56:03;;;;;;;4.97;3.63;;;30.60;84.00;;;;;;5034022;28;20520;-77
2022/05/10 08:58:51;;;;;;;4.60;3.33;;;30.40;83.40;;;;;;5030046;28;20482;-76
2022/05/10 09:01:22;;;;;;;4.80;3.50;;;30.40;83.80;;;;;;5034446;28;20499;-76
2022/05/10 09:03:56;;;;;;;4.23;3.90;;;30.50;81.20;;;;;;5037928;28;20895;-76
2022/05/10 09:06:38;;;;;;;10.90;4.20;;;30.90;80.30;;;;;;5039218;28;20957;-76
2022/05/10 09:09:24;;;;;;;4.93;4.43;;;30.70;79.80;;;;;;5042256;28;20817;-76
2022/05/10 09:11:53;;;;;;;4.30;3.73;;;30.60;79.20;;;;;;5043252;28;20503;-76
2022/05/10 09:14:33;;;;;;;5.30;3.87;;;30.10;77.50;;;;;;5040812;28;20480;-76
2022/05/10 09:17:01;;;;;;;4.37;3.93;;;30.10;78.10;;;;;;5031347;28;20523;-76
2022/05/10 09:19:37;;;;;;;4.10;3.20;;;29.70;76.60;;;;;;5038277;28;20533;-75
2022/05/10 09:22:16;;;;;;;4.63;2.53;;;28.90;76.40;;;;;;5040176;28;20511;-76
2022/05/10 09:24:51;;;;;;;5.77;4.83;;;29.00;77.50;;;;;;5036350;28;20488;-75
2022/05/10 09:27:19;;;;;;;3.73;3.27;;;29.20;78.00;;;;;;5038625;28;20468;-75
2022/05/10 09:29:50;;;;;;;3.10;2.80;;;29.50;75.60;;;;;;5037259;28;20474;-76
2022/05/10 09:35:12;;;;;;;3.73;3.10;;;29.10;77.20;;;;;;5032541;28;21191;-76
2022/05/10 09:37:43;;;;;;;6.70;5.77;;;29.50;78.00;;;;;;5038410;28;20461;-75
2022/05/10 09:40:32;;;;;;;3.60;2.83;;;30.20;75.80;;;;;;5031650;28;20576;-78
2022/05/10 09:43:17;;;;;;;5.93;3.13;;;30.20;72.30;;;;;;5033963;28;20473;-76
2022/05/10 09:45:46;;;;;;;4.00;3.20;;;30.50;72.50;;;;;;5040940;28;20462;-76
2022/05/10 09:48:17;;;;;;;5.73;3.17;;;30.60;73.20;;;;;;5041246;28;21128;-76
2022/05/10 09:50:46;;;;;;;3.30;3.00;;;31.40;68.30;;;;;;5033178;28;20520;-76
2022/05/10 09:53:18;;;;;;;3.70;3.40;;;31.60;68.30;;;;;;5028547;28;20469;-75
2022/05/10 09:55:56;;;;;;;4.70;3.97;;;31.90;67.10;;;;;;5040846;28;20472;-75
2022/05/10 09:58:28;;;;;;;3.80;3.00;;;31.50;66.80;;;;;;5033857;28;20547;-75
2022/05/10 10:00:58;;;;;;;4.10;3.17;;;31.30;66.90;;;;;;5030725;28;20485;-76
2022/05/10 10:03:28;;;;;;;6.03;2.97;;;31.10;66.00;;;;;;5039499;28;20593;-75
2022/05/10 10:05:56;;;;;;;3.63;3.30;;;30.80;66.30;;;;;;5035950;28;20469;-76
2022/05/10 10:08:38;;;;;;;3.33;2.40;;;30.50;67.80;;;;;;5035281;28;20864;-76
2022/05/10 10:11:24;;;;;;;4.60;3.50;;;31.00;66.10;;;;;;5033360;28;20571;-75
2022/05/10 10:13:53;;;;;;;4.10;3.20;;;31.30;65.00;;;;;;5036188;28;20466;-75
2022/05/10 10:16:25;;;;;;;5.93;4.33;;;32.20;63.50;;;;;;5034391;28;20923;-76
2022/05/10 10:18:55;;;;;;;6.90;3.37;;;32.60;62.40;;;;;;5039316;28;20524;-75
2022/05/10 10:21:32;;;;;;;3.27;2.97;;;32.20;60.90;;;;;;5040930;28;20505;-75
2022/05/10 10:24:00;;;;;;;4.07;3.77;;;31.30;60.80;;;;;;5039042;28;20533;-76
2022/05/10 10:26:35;;;;;;;5.03;4.60;;;30.10;63.00;;;;;;5043849;28;20610;-75
2022/05/10 10:29:09;;;;;;;3.00;2.70;;;30.00;65.30;;;;;;5039297;28;20943;-76
2022/05/10 10:31:42;;;;;;;3.40;2.97;;;30.80;63.60;;;;;;5035365;28;20477;-76
2022/05/10 10:34:14;;;;;;;3.30;2.90;;;30.80;62.70;;;;;;5034792;28;20462;-75
2022/05/10 10:36:47;;;;;;;4.10;3.27;;;30.20;62.10;;;;;;5037606;28;20454;-75
2022/05/10 10:39:26;;;;;;;4.67;2.93;;;30.00;62.10;;;;;;5033719;28;21096;-76
2022/05/10 10:41:57;;;;;;;8.83;3.70;;;29.50;63.50;;;;;;5046875;28;20508;-76
2022/05/10 10:44:25;;;;;;;5.10;3.70;;;28.90;65.40;;;;;;5037865;28;20465;-76
2022/05/10 10:47:08;;;;;;;10.67;3.47;;;28.60;68.00;;;;;;5043999;28;20886;-76
2022/05/10 10:49:40;;;;;;;4.90;3.50;;;29.10;67.70;;;;;;5038064;28;20481;-76
2022/05/10 10:52:08;;;;;;;9.17;4.10;;;29.40;68.80;;;;;;5042807;28;20460;-76
2022/05/10 10:54:36;;;;;;;4.60;3.50;;;29.20;68.60;;;;;;5045202;28;20461;-76
2022/05/10 10:57:17;;;;;;;5.53;3.67;;;28.90;68.60;;;;;;5049457;28;20460;-76
2022/05/10 11:00:01;;;;;;;7.23;4.47;;;28.80;70.00;;;;;;5043739;28;20530;-76
2022/05/10 11:03:07;;;;;;;4.27;3.43;;;28.50;71.20;;;;;;5040333;28;20580;-76
2022/05/10 11:06:03;;;;;;;4.40;4.00;;;28.40;71.80;;;;;;5040071;28;20561;-76
2022/05/10 11:08:45;;;;;;;7.50;3.73;;;29.10;70.70;;;;;;5037512;28;20850;-76
2022/05/10 11:11:22;;;;;;;5.60;3.30;;;29.30;70.10;;;;;;5041518;28;20461;-76
2022/05/10 11:13:59;;;;;;;5.10;3.90;;;29.00;69.70;;;;;;5044295;28;20538;-76
2022/05/10 11:16:39;;;;;;;11.30;5.23;;;28.80;71.50;;;;;;5038833;28;20453;-76
2022/05/10 11:19:24;;;;;;;4.33;3.57;;;28.90;72.40;;;;;;5039347;28;20858;-75
2022/05/10 11:22:00;;;;;;;4.77;4.30;;;29.00;72.30;;;;;;5040748;28;20562;-75
2022/05/10 11:24:37;;;;;;;10.30;4.13;;;28.30;73.40;;;;;;5036284;28;20461;-76
2022/05/10 11:27:22;;;;;;;6.87;4.23;;;27.80;73.90;;;;;;5045976;28;20464;-77
2022/05/10 11:29:59;;;;;;;3.80;3.50;;;27.20;74.50;;;;;;5043180;28;20491;-76
2022/05/10 11:32:43;;;;;;;8.53;5.10;;;27.20;75.10;;;;;;5034086;28;20448;-76
2022/05/10 11:35:22;;;;;;;4.50;3.90;;;27.30;76.10;;;;;;5033582;28;20495;-76
2022/05/10 11:37:55;;;;;;;3.50;3.20;;;27.20;73.10;;;;;;5046045;28;21015;-76
2022/05/10 11:40:42;;;;;;;6.23;3.53;;;27.00;72.40;;;;;;5055655;22;20523;-75
2022/05/10 11:43:34;;;;;;;3.13;2.83;;;27.00;72.30;;;;;;5059963;28;20466;-75
2022/05/10 11:46:25;;;;;;;6.00;3.57;;;27.20;72.20;;;;;;5052956;28;20960;-75
2022/05/10 11:49:21;;;;;;;6.07;3.80;;;27.70;69.10;;;;;;5049275;28;20565;-75
2022/05/10 11:52:23;;;;;;;6.33;3.37;;;28.00;68.40;;;;;;5017974;28;20480;-75
2022/05/10 11:55:02;;;;;;;3.13;2.87;;;28.50;66.10;;;;;;5039514;28;20465;-76
2022/05/10 11:57:37;;;;;;;3.20;2.90;;;29.20;66.80;;;;;;5043546;28;20457;-77
2022/05/10 12:00:43;;;;;;;4.60;2.93;;;29.40;65.20;;;;;;5029570;28;20631;-77
2022/05/10 12:03:12;;;;;;;3.63;3.33;;;29.90;63.00;;;;;;5038026;28;20534;-76
2022/05/10 12:05:42;;;;;;;3.90;2.33;;;30.70;62.60;;;;;;5041741;28;20528;-77
2022/05/10 12:08:39;;;;;;;3.00;2.70;;;30.40;60.60;;;;;;5044001;28;20818;-77
2022/05/10 12:11:38;;;;;;;12.10;3.30;;;30.00;60.10;;;;;;5041395;28;20787;-77
2022/05/10 12:23:00;;;;;;;8.90;3.10;;;31.80;57.20;;;;;;4997496;28;20502;-76
2022/05/10 12:26:01;;;;;;;10.17;4.43;;;32.40;57.70;;;;;;5038727;28;20445;-75
2022/05/10 12:28:53;;;;;;;4.40;2.63;;;31.90;56.50;;;;;;5046961;28;20540;-76
2022/05/10 12:31:56;;;;;;;4.30;2.93;;;32.20;56.40;;;;;;5037616;28;20935;-75
2022/05/10 12:34:47;;;;;;;3.67;2.80;;;32.20;56.60;;;;;;5047331;28;21200;-75
2022/05/10 12:37:42;;;;;;;3.70;2.80;;;31.50;56.50;;;;;;5043987;28;20466;-75
2022/05/10 12:40:35;;;;;;;4.10;3.67;;;31.40;56.40;;;;;;5036758;28;20485;-75
2022/05/10 12:43:40;;;;;;;3.17;2.87;;;31.00;55.80;;;;;;5036173;28;21033;-75
2022/05/10 12:46:22;;;;;;;5.60;3.10;;;30.10;56.50;;;;;;5036617;28;20841;-76
2022/05/10 12:49:04;;;;;;;4.73;2.97;;;29.50;57.10;;;;;;5040299;28;21032;-75
2022/05/10 12:51:45;;;;;;;5.07;3.60;;;29.00;58.10;;;;;;5034150;28;20540;-76
2022/05/10 12:54:17;;;;;;;14.53;3.53;;;29.10;58.70;;;;;;5033484;28;20463;-76
2022/05/10 12:57:00;;;;;;;12.03;3.20;;;28.90;58.80;;;;;;5043078;28;20462;-76
2022/05/10 12:59:34;;;;;;;3.50;3.20;;;28.30;59.50;;;;;;5044610;28;20472;-75
2022/05/10 13:02:05;;;;;;;8.90;4.20;;;28.40;60.70;;;;;;5041059;28;20493;-76
2022/05/10 13:04:40;;;;;;;4.47;3.00;;;28.50;60.70;;;;;;5043325;28;20571;-76
2022/05/10 13:07:30;;;;;;;13.83;4.40;;;28.40;60.40;;;;;;5041496;28;20469;-75
2022/05/10 13:10:04;;;;;;;3.63;3.07;;;28.40;60.70;;;;;;5039366;28;20958;-77
2022/05/10 13:12:37;;;;;;;5.13;4.13;;;28.60;60.80;;;;;;5039645;28;20823;-74
2022/05/10 13:15:14;;;;;;;4.23;3.43;;;28.80;60.80;;;;;;5042963;28;20457;-76
2022/05/10 13:17:45;;;;;;;10.73;4.27;;;28.30;61.00;;;;;;5041682;28;20463;-76
2022/05/10 13:20:24;;;;;;;4.47;3.00;;;28.30;62.00;;;;;;5039853;28;20472;-75
2022/05/10 13:22:59;;;;;;;3.73;3.20;;;28.00;61.30;;;;;;5044462;28;21097;-76
2022/05/10 13:25:32;;;;;;;4.10;2.73;;;27.90;62.10;;;;;;5042016;28;20465;-75
2022/05/10 13:28:12;;;;;;;4.60;3.10;;;27.90;63.00;;;;;;5037122;28;20526;-75
2022/05/10 13:30:48;;;;;;;4.10;3.43;;;27.80;63.80;;;;;;5038227;28;20481;-75
2022/05/10 13:33:24;;;;;;;4.10;3.70;;;27.70;64.30;;;;;;5041476;28;20539;-75
2022/05/10 13:36:00;;;;;;;4.33;3.40;;;27.40;63.90;;;;;;5034049;28;20627;-75